• Join FlightAware (Why Join?)
  • Login
  • US Flag 
11:30PM EDT


 

Airport Tracker/Info


-or-


 

Live Flight TrackerFlight Track Log ✈ SWA279 ✈ 24-Apr-2013 ✈ KDEN - KHOU

Flight Track Log - Related Links

Times and Time Zones

All times are in EDT time to prevent confusion due to time zone crossing. See the SWA279 flight status page for this flight to view local times or setup timezone preferences in your user account.

Time Position Orientation Groundspeed Altitude Reporting Facility
EDT Latitude Longitude Course Direction KTS MPH feet Rate Location/Type
12:27PM 39.7833 -104.6667 159° South 197 227 7,400  Level Denver TRACON
12:28PM 39.7167 -104.6333 159° South 271 312 9,100 1,620 Climbing Denver TRACON
12:29PM 39.6828 -104.6056 148° Southeast 275 316 10,000 2,280 Climbing Denver Center
12:30PM 39.5867 -104.6183 186° South 327 376 12,800 2,880 Climbing Denver Center
12:31PM 39.4947 -104.6367 189° South 337 388 16,000 3,060 Climbing Denver Center
12:32PM 39.3867 -104.6622 190° South 365 420 19,200 3,060 Climbing Denver Center
12:33PM 39.2850 -104.6853 190° South 372 428 22,400 2,220 Climbing Denver Center
12:34PM 39.1733 -104.7089 189° South 380 437 23,900 1,680 Climbing Denver Center
12:35PM 39.0689 -104.7300 189° South 391 450 25,900 1,860 Climbing Denver Center
12:36PM 38.9486 -104.6981 168° South 445 512 27,800 1,740 Climbing Denver Center
12:37PM 38.8289 -104.6442 161° South 450 518 29,600 1,560 Climbing Denver Center
12:39PM 38.6303 -104.5303 156° South 502 578 32,000 1,560 Climbing Kansas City Center
12:39PM 38.5664 -104.4600 139° Southeast 513 590 32,900 1,860 Climbing Denver Center
12:40PM 38.4683 -104.3114 130° Southeast 531 611 34,800 1,320 Climbing Denver Center
12:41PM 38.3714 -104.1636 130° Southeast 536 617 35,700 1,080 Climbing Denver Center
12:42PM 38.2719 -104.0206 131° Southeast 537 618 37,100 1,200 Climbing Denver Center
12:43PM 38.1739 -103.8733 130° Southeast 540 621 38,200 900 Climbing Denver Center
12:44PM 38.0767 -103.7322 131° Southeast 531 611 39,000 360 Climbing Denver Center
12:45PM 37.9628 -103.5669 131° Southeast 528 608 39,000  Level Denver Center
12:46PM 37.8669 -103.4261 131° Southeast 525 604 39,000  Level Denver Center
12:47PM 37.7692 -103.2875 132° Southeast 524 603 39,000  Level Denver Center
12:48PM 37.6681 -103.1406 131° Southeast 521 600 39,000  Level Denver Center
12:49PM 37.5761 -103.0083 131° Southeast 523 602 39,000  Level Denver Center
12:50PM 37.4692 -102.8556 131° Southeast 523 602 39,000  Level Denver Center
12:51PM 37.3769 -102.7250 132° Southeast 522 601 39,000  Level Denver Center
12:52PM 37.3306 -102.6603 132° Southeast 520 598 39,000  Level Albuquerque Center
12:53PM 37.2225 -102.5064 131° Southeast 525 604 39,000  Level Albuquerque Center
12:54PM 37.1297 -102.3764 132° Southeast 524 603 39,000  Level Albuquerque Center
12:55PM 37.0219 -102.2258 132° Southeast 521 600 39,000  Level Albuquerque Center
12:56PM 36.9303 -102.0969 132° Southeast 521 600 39,000  Level Albuquerque Center
12:57PM 36.8222 -101.9483 132° Southeast 520 598 39,000  Level Albuquerque Center
12:58PM 36.7314 -101.8222 132° Southeast 514 592 39,000  Level Albuquerque Center
12:59PM 36.6253 -101.6758 132° Southeast 513 590 39,000  Level Albuquerque Center
01:00PM 36.5342 -101.5528 133° Southeast 510 587 39,000  Level Albuquerque Center
01:01PM 36.4297 -101.4089 132° Southeast 505 581 39,000  Level Albuquerque Center
01:02PM 36.3394 -101.2844 132° Southeast 506 582 39,000  Level Albuquerque Center
01:03PM 36.2486 -101.1614 132° Southeast 507 583 39,000  Level Albuquerque Center
01:04PM 36.1344 -101.0097 133° Southeast 503 579 39,000  Level Albuquerque Center
01:05PM 36.0414 -100.8836 132° Southeast 498 573 39,000  Level Albuquerque Center
01:06PM 35.9461 -100.7556 133° Southeast 502 578 39,000  Level Albuquerque Center
01:07PM 35.8494 -100.6308 134° Southeast 503 579 39,000  Level Albuquerque Center
01:08PM 35.7547 -100.5033 132° Southeast 503 579 39,000  Level Albuquerque Center
01:10PM 35.6578 -100.3750 133° Southeast 508 585 39,000  Level Albuquerque Center
01:11PM 35.5414 -100.2208 133° Southeast 512 589 39,000  Level Albuquerque Center
01:12PM 35.4444 -100.0944 133° Southeast 512 589 39,000  Level Albuquerque Center
01:13PM 35.3475 -99.9675 133° Southeast 510 587 39,000  Level Albuquerque Center
01:14PM 35.2511 -99.8425 133° Southeast 509 586 39,000  Level Albuquerque Center
01:15PM 35.1547 -99.7175 133° Southeast 506 582 39,000  Level Albuquerque Center
01:16PM 35.0581 -99.5933 134° Southeast 505 581 39,000  Level Albuquerque Center
01:17PM 34.9442 -99.4464 133° Southeast 500 575 39,000  Level Albuquerque Center
01:18PM 34.8411 -99.3186 134° Southeast 492 566 39,000  Level Fort Worth Center
01:19PM 34.7469 -99.1978 133° Southeast 485 558 39,000  Level Fort Worth Center
01:20PM 34.6547 -99.0797 134° Southeast 485 558 39,000  Level Fort Worth Center
01:21PM 34.5744 -98.9772 134° Southeast 485 558 39,000  Level Fort Worth Center
01:22PM 34.4800 -98.8594 134° Southeast 485 558 39,000  Level Fort Worth Center
01:23PM 34.3833 -98.7397 134° Southeast 485 558 39,000  Level Fort Worth Center
01:24PM 34.2906 -98.6225 134° Southeast 485 558 39,000  Level Fort Worth Center
01:25PM 34.1997 -98.5083 134° Southeast 485 558 39,000  Level Fort Worth Center
01:26PM 34.1028 -98.3867 134° Southeast 485 558 39,000  Level Fort Worth Center
01:27PM 34.0014 -98.2553 133° Southeast 491 565 39,000  Level Fort Worth Center
01:28PM 33.9061 -98.1417 135° Southeast 485 558 39,000  Level Fort Worth Center
01:29PM 33.8128 -98.0233 133° Southeast 485 558 39,000  Level Fort Worth Center
01:30PM 33.7194 -97.9081 134° Southeast 485 558 39,000  Level Fort Worth Center
01:31PM 33.6239 -97.7900 134° Southeast 483 556 39,000  Level Fort Worth Center
01:32PM 33.5322 -97.6750 134° Southeast 483 556 39,000  Level Fort Worth Center
01:33PM 33.4367 -97.5603 135° Southeast 483 556 39,000  Level Fort Worth Center
01:34PM 33.3428 -97.4483 135° Southeast 483 556 39,000  Level Fort Worth Center
01:35PM 33.2592 -97.3464 134° Southeast 478 550 39,000  Level Fort Worth Center
01:36PM 33.1672 -97.2322 134° Southeast 478 550 39,000  Level Fort Worth Center
01:37PM 33.0731 -97.1158 134° Southeast 478 550 39,000  Level Fort Worth Center
01:38PM 32.9664 -96.9975 137° Southeast 478 550 39,000  Level Fort Worth Center
01:39PM 32.8658 -96.9064 143° Southeast 470 541 39,000  Level Fort Worth Center
01:40PM 32.7489 -96.8947 175° South 419 482 39,000  Level Fort Worth Center
01:41PM 32.6297 -96.8881 177° South 424 488 39,000  Level Fort Worth Center
01:42PM 32.5150 -96.8836 178° South 423 487 39,000  Level Fort Worth Center
01:43PM 32.4083 -96.8744 176° South 423 487 39,000  Level Fort Worth Center
01:44PM 32.2894 -96.8703 178° South 423 487 39,000  Level Fort Worth Center
01:45PM 32.1703 -96.8661 178° South 423 487 39,000  Level Fort Worth Center
01:47PM 31.9167 -96.8497 177° South 425 489 39,000  Level Houston Center
01:48PM 31.7964 -96.8422 177° South 427 491 39,000  Level Houston Center
01:49PM 31.6772 -96.8347 177° South 424 488 39,000  Level Houston Center
01:50PM 31.5553 -96.8131 171° South 434 499 39,000  Level Houston Center
01:51PM 31.4122 -96.7908 172° South 438 504 39,000 -960 Level Houston Center
01:52PM 31.2922 -96.7719 172° South 430 495 37,100 -2,280 Descending Houston Center
01:53PM 31.1725 -96.7522 172° South 427 491 34,300 -3,120 Descending Houston Center
01:54PM 31.0467 -96.7297 171° South 443 510 30,700 -3,180 Descending Houston Center
01:55PM 30.9247 -96.6633 155° Southeast 476 548 27,800 -2,940 Descending Houston Center
01:56PM 30.8092 -96.5886 151° Southeast 472 543 24,700 -2,940 Descending Houston Center
01:57PM 30.6931 -96.5161 152° Southeast 461 531 21,800 -2,520 Descending Houston Center
01:58PM 30.5869 -96.4475 151° Southeast 445 512 19,500 -2,040 Descending Houston Center
01:59PM 30.4867 -96.3842 151° Southeast 412 474 17,600 -2,100 Descending Houston Center
02:00PM 30.3922 -96.3236 151° Southeast 387 445 15,200 -2,400 Descending Houston Center
02:01PM 30.2853 -96.2564 152° Southeast 371 427 12,700 -2,100 Descending Houston Center
02:02PM 30.2014 -96.2039 152° Southeast 352 405 11,100 -900 Descending Houston Center
02:03PM 30.1158 -96.1594 156° South 334 384 10,900 -120 Descending Houston Center
02:05PM 30.0372 -96.1069 150° Southeast 328 377 10,900  Level Houston Center
02:06PM 29.9703 -96.0314 136° Southeast 336 387 10,900 -300 Level Houston Center
02:07PM 29.8964 -95.9497 136° Southeast 327 376 10,300 -1,020 Descending Houston Center
02:08PM 29.8333 -95.8792 136° Southeast 296 341 8,900 -1,440 Descending Houston Center
02:09PM 29.7789 -95.8197 137° Southeast 293 337 7,400 -1,440 Descending Houston Center
02:10PM 29.7169 -95.7506 136° Southeast 290 334 6,000 -720 Descending Houston Center
02:11PM 29.6564 -95.6833 136° Southeast 282 325 6,000  Level Houston Center
02:12PM 29.6122 -95.6097 125° Southeast 273 314 6,000 -600 Level Houston Center
02:13PM 29.5908 -95.5278 107° East 268 308 4,800 -1,080 Descending Houston Center
02:14PM 29.5694 -95.4492 107° East 263 303 3,800 -1,020 Descending Houston Center
02:15PM 29.5822 -95.3725 79° East 182 209 2,700 -1,260 Descending Houston Center
02:16PM 29.5975 -95.3322 66° East 147 169 1,300 -1,260 Descending Houston Center
02:17PM 29.6278 -95.2972 45° Northeast 137 158 300 -600 Descending Houston Center
02:18PM 29.6525 -95.2719 42° Northeast 146 168 100 -240 Descending Houston Center
02:20PM 29.6454 -95.2789 115° Southeast  Level Estimated